Conquistador — XPD5425 — position and weather

sailwx.info

Track history (hours):
 
Tides and Currents Weather Stations Pressure Air Temp Water Temp Dewpoint Dewpoint Depression Visibility Wind Speed Wind Dir Waves Ship Positions

Conquistador

Last reported at 2017-Oct-17 23:18 UTC. Time now 2017-Nov-23 03:53 UTC.
Position N 38°08' E 017°45'.
Warning: this ship's position is 36 days out of date.

Length 13 m.

Type: Pleasure craft. MMSI: 219006077.

Date/timePositionNaut miles runAvg speedWind from/ knotsBaromVisibWave heightAir tempDewpointWater temp
2017-Oct-17 23:18N 38°08' E 017°45'44 5.4
2017-Oct-17 15:06N 37°59' E 018°40'1 6.1
2017-Oct-17 15:00N 37°59' E 018°40'9 5.8
2017-Oct-17 13:29N 37°56' E 018°51'3 5.6
2017-Oct-17 13:00N 37°56' E 018°54'3 6.0
2017-Oct-17 12:29N 37°55' E 018°58'3 5.9
2017-Oct-17 12:00N 37°54' E 019°02'3 5.8
2017-Oct-17 11:29N 37°53' E 019°05'8 6.0
2017-Oct-17 10:10N 37°52' E 019°15'1 6.1
2017-Oct-17 09:59N 37°52' E 019°17'25 6.2
2017-Oct-17 06:00N 37°48' E 019°47'3 6.2
2017-Oct-17 05:30N 37°48' E 019°51'3 5.8
2017-Oct-17 05:00N 37°47' E 019°55'19 5.3
2017-Oct-17 01:25N 37°43' E 020°18'3 5.0
2017-Oct-17 00:51N 37°42' E 020°22'2 5.0
2017-Oct-17 00:30N 37°42' E 020°24'3 5.1
2017-Oct-16 23:59N 37°41' E 020°27'3 5.3
2017-Oct-16 23:30N 37°41' E 020°30'  
Track history (hours):
 
Tides and Currents Weather Stations Pressure Air Temp Water Temp Dewpoint Dewpoint Depression Visibility Wind Speed Wind Dir Waves Ship Positions

Conquistador

Last reported at 2017-Oct-17 23:18 UTC. Time now 2017-Nov-23 03:53 UTC.
Position N 38°08' E 017°45'.
Warning: this ship's position is 36 days out of date.

Length 13 m.

Type: Pleasure craft. MMSI: 219006077.

Date/timePositionNaut miles runAvg speedWind from/ knotsBaromVisibWave heightAir tempDewpointWater temp
2017-Oct-17 23:18N 38°08' E 017°45'44 5.4
2017-Oct-17 15:06N 37°59' E 018°40'1 6.1
2017-Oct-17 15:00N 37°59' E 018°40'9 5.8
2017-Oct-17 13:29N 37°56' E 018°51'3 5.6
2017-Oct-17 13:00N 37°56' E 018°54'3 6.0
2017-Oct-17 12:29N 37°55' E 018°58'3 5.9
2017-Oct-17 12:00N 37°54' E 019°02'3 5.8
2017-Oct-17 11:29N 37°53' E 019°05'8 6.0
2017-Oct-17 10:10N 37°52' E 019°15'1 6.1
2017-Oct-17 09:59N 37°52' E 019°17'25 6.2
2017-Oct-17 06:00N 37°48' E 019°47'3 6.2
2017-Oct-17 05:30N 37°48' E 019°51'3 5.8
2017-Oct-17 05:00N 37°47' E 019°55'19 5.3
2017-Oct-17 01:25N 37°43' E 020°18'3 5.0
2017-Oct-17 00:51N 37°42' E 020°22'2 5.0
2017-Oct-17 00:30N 37°42' E 020°24'3 5.1
2017-Oct-16 23:59N 37°41' E 020°27'3 5.3
2017-Oct-16 23:30N 37°41' E 020°30'  

Dump ship's entire track history